Time;durP1;ratioP1;P1;durP2;ratioP2;P2;SDS_P1;SDS_P2;PMS_P1;PMS_P2;Temp;Humidity;BMP_temperature;BMP_pressure;BME280_temperature;BME280_humidity;BME280_pressure;Samples;Min_cycle;Max_cycle;Signal;HPM_P1;HPM_P2
2022/10/10 00:01:25;;;;;;;0.90;0.33;;;;;;;9.85;96.99;100946.38;1752312;80;20983;-75
2022/10/10 00:03:53;;;;;;;0.50;0.30;;;;;;;9.85;97.01;100949.52;1728891;82;20973;-77
2022/10/10 00:06:20;;;;;;;1.43;0.80;;;;;;;9.82;96.97;100950.70;1752712;80;21529;-78
2022/10/10 00:08:47;;;;;;;0.87;0.20;;;;;;;9.82;97.06;100953.36;1752080;80;21639;-77
2022/10/10 00:11:17;;;;;;;1.83;0.30;;;;;;;9.80;97.13;100954.03;1749951;81;21133;-79
2022/10/10 00:13:46;;;;;;;1.23;0.40;;;;;;;9.78;97.21;100952.55;1742269;80;21068;-77
2022/10/10 00:16:14;;;;;;;1.80;0.27;;;;;;;9.75;97.11;100954.52;1751367;80;21041;-77
2022/10/10 00:18:41;;;;;;;4.00;0.30;;;;;;;9.73;97.32;100955.19;1752480;81;21569;-78
2022/10/10 00:21:10;;;;;;;2.77;0.40;;;;;;;9.72;97.27;100953.54;1758604;81;20996;-77
2022/10/10 00:23:37;;;;;;;1.33;0.30;;;;;;;9.70;97.18;100958.68;1753527;80;21434;-76
2022/10/10 00:26:05;;;;;;;0.73;0.30;;;;;;;9.68;97.23;100956.21;1752433;81;20973;-76
2022/10/10 00:28:31;;;;;;;3.90;0.30;;;;;;;9.61;97.37;100953.88;1751147;80;21056;-77
2022/10/10 00:30:57;;;;;;;1.47;0.30;;;;;;;9.55;97.56;100956.70;1741012;80;21492;-77
2022/10/10 00:33:23;;;;;;;;;;;;;;;9.54;97.73;100959.02;1741568;80;21085;-79
2022/10/10 00:35:49;;;;;;;7.83;0.60;;;;;;;9.52;97.73;100958.87;1748743;81;20079;-76
2022/10/10 00:38:17;;;;;;;3.27;0.60;;;;;;;9.43;97.88;100966.00;1749518;80;21588;-77
2022/10/10 00:40:49;;;;;;;4.70;0.63;;;;;;;9.41;98.17;100963.19;1753261;81;21512;-78
2022/10/10 00:43:17;;;;;;;1.63;0.33;;;;;;;9.38;98.06;100963.03;1755443;81;21004;-77
2022/10/10 00:45:46;;;;;;;2.93;0.83;;;;;;;9.35;98.10;100966.83;1752904;80;21497;-78
2022/10/10 00:48:20;;;;;;;2.20;0.73;;;;;;;9.32;98.14;100974.30;1725177;82;21135;-77
2022/10/10 00:50:54;;;;;;;0.83;0.40;;;;;;;9.28;98.10;100970.31;1732814;82;21080;-77
2022/10/10 00:53:45;;;;;;;2.17;0.20;;;;;;;9.23;98.34;100969.49;1740527;81;20971;-76
2022/10/10 00:56:14;;;;;;;0.67;0.20;;;;;;;9.19;98.53;100969.97;1741227;79;21045;-78
2022/10/10 00:58:43;;;;;;;1.07;0.30;;;;;;;9.16;98.83;100971.14;1753326;81;21512;-78
2022/10/10 01:01:10;;;;;;;1.70;0.27;;;;;;;9.14;98.88;100976.61;1743611;81;20988;-79
2022/10/10 01:03:38;;;;;;;0.70;0.20;;;;;;;9.13;98.92;100978.92;1742266;81;21020;-79
2022/10/10 01:06:05;;;;;;;0.53;0.20;;;;;;;9.09;98.97;100974.94;1741571;80;20985;-77
2022/10/10 01:08:33;;;;;;;3.30;0.43;;;;;;;9.04;99.15;100970.62;1752604;80;21525;-77
2022/10/10 01:11:33;;;;;;;0.97;0.30;;;;;;;9.00;99.35;100970.59;1740727;81;21571;-77
2022/10/10 01:14:44;;;;;;;1.90;0.30;;;;;;;8.95;99.38;100977.73;1734492;80;21537;-77
2022/10/10 01:17:35;;;;;;;1.07;0.47;;;;;;;8.89;99.69;100976.20;1713624;81;21113;-77
2022/10/10 01:20:48;;;;;;;1.93;0.40;;;;;;;8.85;100.00;100974.88;1722298;81;21107;-77
2022/10/10 01:23:32;;;;;;;4.47;0.20;;;;;;;8.85;100.00;100973.54;1741120;81;21463;-77
2022/10/10 01:26:39;;;;;;;1.50;0.30;;;;;;;8.84;100.00;100977.20;1741166;81;21062;-79
2022/10/10 01:29:26;;;;;;;2.40;0.47;;;;;;;8.80;99.97;100982.48;1727012;81;21453;-78
2022/10/10 01:31:56;;;;;;;0.53;0.25;;;;;;;8.75;100.00;100976.34;1736040;81;20948;-79
2022/10/10 01:34:40;;;;;;;4.73;0.40;;;;;;;8.74;100.00;100978.17;1721769;82;21069;-78
2022/10/10 01:37:24;;;;;;;1.20;0.33;;;;;;;8.76;100.00;100987.32;1748365;80;20963;-78
2022/10/10 01:40:11;;;;;;;1.50;0.30;;;;;;;8.77;100.00;100988.47;1733538;81;21060;-77
2022/10/10 01:42:55;;;;;;;1.83;0.30;;;;;;;8.75;99.73;100983.81;1718271;82;21066;-76
2022/10/10 01:45:24;;;;;;;0.80;0.27;;;;;;;8.72;99.84;100984.14;1757299;80;21015;-77
2022/10/10 01:47:54;;;;;;;1.00;0.30;;;;;;;8.70;99.89;100994.11;1736625;81;21167;-77
2022/10/10 01:50:24;;;;;;;7.57;0.90;;;;;;;8.73;99.79;100995.09;1768482;80;21076;-76
2022/10/10 01:53:12;;;;;;;4.00;1.13;;;;;;;8.75;99.58;100997.09;1733254;81;21053;-77
2022/10/10 01:56:07;;;;;;;2.62;2.22;;;;;;;8.75;99.27;100996.27;1734508;81;21073;-76
2022/10/10 01:58:42;;;;;;;7.00;2.43;;;;;;;8.73;99.17;101004.40;1752911;80;21036;-77
2022/10/10 02:01:52;;;;;;;5.20;3.73;;;;;;;8.34;99.10;100949.55;1752313;80;21041;-76
2022/10/10 02:04:35;;;;;;;6.13;4.03;;;;;;;8.68;99.21;101016.50;1707599;82;21045;-76
2022/10/10 02:07:20;;;;;;;9.43;5.63;;;;;;;8.60;99.30;101017.30;1762483;80;21272;-76
2022/10/10 02:09:50;;;;;;;6.77;4.67;;;;;;;8.52;99.41;101014.11;1758632;80;21099;-76
2022/10/10 02:12:19;;;;;;;7.07;5.47;;;;;;;8.48;99.66;101021.23;1738486;81;21008;-77
2022/10/10 02:14:51;;;;;;;7.70;4.97;;;;;;;8.46;99.82;101027.20;1738069;81;21096;-76
2022/10/10 02:17:21;;;;;;;10.97;5.13;;;;;;;8.45;100.00;101033.50;1768773;80;21044;-76
2022/10/10 02:19:52;;;;;;;7.47;4.97;;;;;;;8.42;100.00;101031.14;1713144;81;21515;-76
2022/10/10 02:22:21;;;;;;;6.77;4.27;;;;;;;8.39;100.00;101031.77;1765763;80;20965;-76
2022/10/10 02:24:48;;;;;;;6.73;3.77;;;;;;;8.37;100.00;101029.77;1738160;81;21088;-76
2022/10/10 02:27:22;;;;;;;5.77;3.03;;;;;;;8.32;100.00;101028.06;1747311;81;21502;-77
2022/10/10 02:29:52;;;;;;;5.63;3.23;;;;;;;8.28;100.00;101020.08;1738813;81;21021;-75
2022/10/10 02:32:46;;;;;;;4.20;1.93;;;;;;;8.27;100.00;101033.03;1754007;80;21021;-76
2022/10/10 02:35:17;;;;;;;1.93;0.97;;;;;;;8.26;100.00;101027.37;1769916;80;21011;-77
2022/10/10 02:37:46;;;;;;;3.53;1.27;;;;;;;8.23;100.00;101030.36;1742230;80;20973;-76
2022/10/10 02:40:22;;;;;;;1.90;0.97;;;;;;;8.23;100.00;101031.69;1746113;81;21498;-77
2022/10/10 02:42:52;;;;;;;1.40;0.77;;;;;;;8.22;100.00;101035.82;1755024;81;21037;-76
2022/10/10 02:45:20;;;;;;;1.30;0.57;;;;;;;8.21;100.00;101037.63;1752530;80;20996;-77
2022/10/10 02:47:50;;;;;;;1.33;0.83;;;;;;;8.21;100.00;101039.45;1746347;81;21017;-77
2022/10/10 02:50:17;;;;;;;0.90;0.70;;;;;;;8.20;100.00;101038.62;1768819;80;21091;-76
2022/10/10 02:52:44;;;;;;;;;;;;;;;8.17;100.00;101036.27;1738983;81;21527;-79
2022/10/10 02:55:10;;;;;;;3.30;0.57;;;;;;;8.14;100.00;101034.77;1739328;81;20092;-77
2022/10/10 02:57:36;;;;;;;3.05;1.02;;;;;;;8.08;100.00;101046.48;1769881;80;20989;-78
2022/10/10 03:00:05;;;;;;;2.08;0.40;;;;;;;8.06;100.00;101041.83;1735138;81;21543;-77
2022/10/10 03:02:32;;;;;;;2.27;0.60;;;;;;;8.04;100.00;101038.50;1773215;80;21553;-77
2022/10/10 03:04:58;;;;;;;2.23;0.70;;;;;;;8.03;100.00;101039.00;1768548;80;21472;-77
2022/10/10 03:07:25;;;;;;;2.87;0.40;;;;;;;8.03;100.00;101051.45;1768513;80;21560;-77
2022/10/10 03:09:52;;;;;;;0.97;0.50;;;;;;;8.03;100.00;101059.42;1756629;80;20997;-76
2022/10/10 03:12:19;;;;;;;3.42;0.45;;;;;;;8.01;100.00;101054.76;1735186;81;21072;-77
2022/10/10 03:14:45;;;;;;;2.20;1.07;;;;;;;7.99;100.00;101053.58;1768547;80;21045;-78
2022/10/10 03:17:11;;;;;;;1.42;0.65;;;;;;;7.97;100.00;101060.87;1767390;80;21011;-78
2022/10/10 03:19:38;;;;;;;2.62;0.60;;;;;;;7.95;100.00;101061.02;1745042;81;21111;-76
2022/10/10 03:22:04;;;;;;;2.65;0.82;;;;;;;7.94;100.00;101067.30;1768228;80;21049;-79
2022/10/10 03:24:31;;;;;;;3.07;1.03;;;;;;;7.94;100.00;101070.45;1736123;81;21520;-78
2022/10/10 03:26:57;;;;;;;2.45;0.37;;;;;;;7.95;100.00;101066.33;1738556;81;21491;-77
2022/10/10 03:29:23;;;;;;;3.00;0.68;;;;;;;7.96;100.00;101062.66;1766030;80;22288;-76
2022/10/10 03:31:49;;;;;;;;;;;;;;;7.95;100.00;101066.33;1769095;80;21078;-78
2022/10/10 03:34:15;;;;;;;1.80;0.20;;;;;;;7.94;100.00;101067.30;1734783;81;20507;-77
2022/10/10 03:36:42;;;;;;;3.25;1.17;;;;;;;7.91;100.00;101066.77;1736577;82;21089;-76
2022/10/10 03:39:08;;;;;;;1.10;0.50;;;;;;;7.92;100.00;101061.31;1760779;80;21064;-77
2022/10/10 03:41:35;;;;;;;2.27;0.95;;;;;;;7.97;100.00;101071.48;1740082;81;20985;-77
2022/10/10 03:44:01;;;;;;;1.77;0.60;;;;;;;7.99;100.00;101070.33;1746684;81;21469;-76
2022/10/10 03:46:28;;;;;;;2.10;0.53;;;;;;;8.02;100.00;101071.01;1755342;80;20986;-78
2022/10/10 03:48:55;;;;;;;2.05;1.00;;;;;;;8.05;100.00;101074.20;1738726;81;20972;-76
2022/10/10 03:51:21;;;;;;;0.70;0.30;;;;;;;8.08;100.00;101075.70;1740491;81;21019;-76
2022/10/10 03:53:47;;;;;;;3.33;0.60;;;;;;;8.10;100.00;101077.70;1743797;80;21063;-76
2022/10/10 03:56:15;;;;;;;0.63;0.30;;;;;;;8.07;100.00;101077.53;1750854;81;21103;-77
2022/10/10 03:58:42;;;;;;;1.63;0.63;;;;;;;8.03;100.00;101081.98;1760325;80;21068;-77
2022/10/10 04:01:08;;;;;;;2.87;1.20;;;;;;;8.02;100.00;101083.78;1726887;81;21059;-84
2022/10/10 04:03:34;;;;;;;2.08;0.37;;;;;;;7.87;100.00;101058.77;1768264;80;21082;-78
2022/10/10 04:06:01;;;;;;;1.50;0.60;;;;;;;8.08;100.00;101091.16;1738386;81;21516;-77
2022/10/10 04:08:28;;;;;;;3.12;0.40;;;;;;;8.10;100.00;101088.33;1735367;81;21079;-77
2022/10/10 04:10:55;;;;;;;3.30;0.33;;;;;;;8.09;100.00;101093.31;1744972;81;21035;-78
2022/10/10 04:13:24;;;;;;;0.97;0.83;;;;;;;8.07;100.00;101098.77;1743870;81;21021;-78
2022/10/10 04:15:52;;;;;;;2.63;1.00;;;;;;;8.06;100.00;101092.28;1751823;80;21482;-78
2022/10/10 04:18:19;;;;;;;0.70;0.40;;;;;;;8.08;100.00;101103.11;1775761;80;21041;-78
2022/10/10 04:20:45;;;;;;;3.03;0.40;;;;;;;8.09;100.00;101101.28;1772466;80;21013;-84
2022/10/10 04:23:11;;;;;;;;;;;;;;;8.09;100.00;101095.47;1756273;81;21422;-86
2022/10/10 04:25:38;;;;;;;1.23;0.40;;;;;;;8.08;100.00;101100.92;1731945;81;20106;-86
2022/10/10 04:28:04;;;;;;;;;;;;;;;8.03;100.00;101100.57;1770592;80;21053;-85
2022/10/10 04:30:33;;;;;;;2.30;0.57;;;;;;;8.03;100.00;101100.57;1739751;81;20404;-85
2022/10/10 04:33:00;;;;;;;1.40;0.30;;;;;;;7.97;100.00;101100.69;1735716;81;20999;-77
2022/10/10 04:35:26;;;;;;;2.10;1.27;;;;;;;7.98;100.00;101099.18;1758901;80;21084;-80
2022/10/10 04:37:52;;;;;;;1.85;0.72;;;;;;;8.04;100.00;101104.87;1746324;81;21106;-82
2022/10/10 04:40:18;;;;;;;1.75;0.80;;;;;;;8.07;100.00;101104.58;1768811;80;21001;-82
2022/10/10 04:42:46;;;;;;;3.00;1.47;;;;;;;8.10;100.00;101098.95;1768281;80;21149;-81
2022/10/10 04:45:12;;;;;;;3.17;1.37;;;;;;;8.14;100.00;101099.00;1736807;81;21456;-82
2022/10/10 04:47:38;;;;;;;2.40;1.17;;;;;;;8.24;100.00;101103.72;1729567;81;20997;-77
2022/10/10 04:50:06;;;;;;;5.55;0.80;;;;;;;8.55;99.50;101104.63;1727673;81;21024;-80
2022/10/10 04:52:32;;;;;;;1.00;0.83;;;;;;;8.90;97.42;101110.31;1744459;81;21635;-80
2022/10/10 04:54:58;;;;;;;2.05;0.25;;;;;;;9.21;95.58;101116.94;1762428;80;21001;-83
2022/10/10 04:57:24;;;;;;;3.85;0.42;;;;;;;9.43;94.46;101115.02;1739424;81;20999;-81
2022/10/10 04:59:50;;;;;;;1.35;0.72;;;;;;;9.62;93.09;101125.05;1762196;81;21029;-82
2022/10/10 05:02:17;;;;;;;1.55;0.70;;;;;;;9.66;91.97;101124.58;1769904;79;21056;-80
2022/10/10 05:04:43;;;;;;;1.63;1.00;;;;;;;9.65;91.41;101127.40;1758199;81;21561;-75
2022/10/10 05:07:09;;;;;;;1.95;0.72;;;;;;;9.58;90.68;101126.38;1769669;80;21485;-74
2022/10/10 05:09:37;;;;;;;1.50;0.20;;;;;;;9.50;91.02;101120.53;1769249;80;21036;-76
2022/10/10 05:12:04;;;;;;;;;;;;;;;9.57;91.64;101128.22;1743295;81;21057;-77
2022/10/10 05:14:30;;;;;;;3.30;0.50;;;;;;;9.68;90.92;101128.39;1736418;82;20104;-77
2022/10/10 05:17:01;;;;;;;0.87;0.40;;;;;;;9.76;91.11;101133.75;1762000;79;21099;-78
2022/10/10 05:19:29;;;;;;;3.17;0.50;;;;;;;9.81;89.94;101127.92;1723358;81;21079;-76
2022/10/10 05:21:55;;;;;;;2.03;0.70;;;;;;;9.77;89.14;101131.91;1747485;81;21067;-77
2022/10/10 05:24:22;;;;;;;2.20;0.50;;;;;;;9.64;89.48;101139.85;1768487;80;21091;-79
2022/10/10 05:26:48;;;;;;;3.37;0.30;;;;;;;9.58;90.10;101140.51;1759589;80;21061;-79
2022/10/10 05:29:15;;;;;;;2.30;0.40;;;;;;;9.54;90.11;101141.84;1761864;80;20981;-93
2022/10/10 05:31:41;;;;;;;1.72;0.47;;;;;;;9.57;90.66;101141.52;1715234;81;21021;-69
2022/10/10 05:34:12;;;;;;;2.37;0.42;;;;;;;9.70;90.24;101149.88;1766197;80;21004;-68
2022/10/10 05:36:40;;;;;;;1.30;0.40;;;;;;;9.83;89.69;101149.41;1729581;81;21506;-77
2022/10/10 05:39:08;;;;;;;1.40;0.47;;;;;;;9.85;89.09;101154.07;1752198;80;21495;-76
2022/10/10 05:41:35;;;;;;;2.05;0.55;;;;;;;9.81;89.30;101156.70;1752469;80;21618;-80
2022/10/10 05:44:01;;;;;;;1.43;0.77;;;;;;;9.74;89.24;101154.38;1769166;80;21041;-80
2022/10/10 05:46:28;;;;;;;5.92;2.40;;;;;;;9.59;89.60;101152.84;1735776;81;21111;-79
2022/10/10 05:48:54;;;;;;;2.37;2.08;;;;;;;9.67;91.39;101153.36;1726603;81;21497;-81
2022/10/10 05:51:20;;;;;;;;;;;;;;;10.18;90.09;101147.44;1770379;80;20998;-80
2022/10/10 05:53:48;;;;;;;3.83;0.30;;;;;;;10.86;87.33;101141.41;1736483;81;20093;-76
2022/10/10 05:56:15;;;;;;;3.67;0.88;;;;;;;11.36;82.84;101145.58;1758638;80;21036;-81
2022/10/10 05:58:43;;;;;;;2.12;0.85;;;;;;;11.77;81.74;101148.05;1761964;80;21038;-80
2022/10/10 06:01:09;;;;;;;0.57;0.37;;;;;;;12.38;80.09;101145.95;1765585;80;21544;-78
2022/10/10 06:03:36;;;;;;;1.42;0.60;;;;;;;12.73;76.13;101147.11;1778640;80;21033;-81
2022/10/10 06:06:03;;;;;;;1.85;0.40;;;;;;;12.74;76.12;101152.80;1737383;81;21063;-80
2022/10/10 06:08:31;;;;;;;3.50;1.92;;;;;;;12.90;75.70;101158.98;1744862;81;21102;-80
2022/10/10 06:11:10;;;;;;;5.22;4.42;;;;;;;12.79;75.44;101157.10;1758444;81;21037;-76
2022/10/10 06:13:37;;;;;;;13.72;12.33;;;;;;;12.57;75.94;101158.81;1735743;81;21036;-80
2022/10/10 06:16:05;;;;;;;27.27;24.37;;;;;;;12.17;77.39;101163.49;1743659;81;21072;-79
2022/10/10 06:18:32;;;;;;;33.48;29.87;;;;;;;11.84;78.68;101166.85;1737321;81;21516;-79
2022/10/10 06:21:04;;;;;;;30.70;25.75;;;;;;;11.43;80.22;101173.25;1745154;81;21083;-78
2022/10/10 06:23:31;;;;;;;20.57;18.55;;;;;;;11.12;81.84;101174.52;1722804;82;21040;-79
2022/10/10 06:25:59;;;;;;;16.27;13.75;;;;;;;10.81;83.45;101171.75;1722395;81;21032;-79
2022/10/10 06:28:25;;;;;;;17.40;14.25;;;;;;;10.50;85.78;101179.12;1712552;81;21542;-76
2022/10/10 06:30:51;;;;;;;10.58;9.48;;;;;;;10.32;86.21;101182.79;1737523;81;21172;-77
2022/10/10 06:33:18;;;;;;;;;;;;;;;10.19;87.16;101174.91;1745067;81;21075;-76
2022/10/10 06:35:47;;;;;;;7.83;3.83;;;;;;;10.18;87.58;101189.23;1720699;81;20200;-76
2022/10/10 06:38:15;;;;;;;12.13;2.40;;;;;;;10.04;87.44;101190.70;1761790;80;21722;-70
2022/10/10 06:40:42;;;;;;;1.40;0.60;;;;;;;9.97;88.39;101191.05;1731728;81;20956;-67
2022/10/10 06:43:11;;;;;;;4.77;2.37;;;;;;;9.90;88.54;101186.85;1724027;81;21088;-67
2022/10/10 06:45:39;;;;;;;5.33;1.23;;;;;;;9.87;89.14;101193.83;1735074;81;21029;-67
2022/10/10 06:48:08;;;;;;;2.67;0.60;;;;;;;9.86;89.18;101188.18;1757040;80;21046;-71
2022/10/10 06:50:35;;;;;;;2.27;1.17;;;;;;;9.65;89.75;101162.00;1763283;80;21087;-71
2022/10/10 06:53:01;;;;;;;2.02;0.78;;;;;;;9.79;90.15;101189.81;1768584;80;20968;-74
2022/10/10 06:55:27;;;;;;;3.05;0.72;;;;;;;9.82;90.02;101187.67;1756488;80;21454;-69
2022/10/10 06:57:53;;;;;;;3.10;0.75;;;;;;;9.86;90.03;101190.84;1738565;81;21562;-71
2022/10/10 07:15:13;;;;;;;2.43;0.93;;;;;;;9.28;94.02;101197.77;1792810;78;22246;-89
2022/10/10 07:17:41;;;;;;;3.70;1.67;;;;;;;9.31;93.49;101201.45;1733923;80;21605;-88
2022/10/10 07:20:18;;;;;;;2.67;1.73;;;;;;;9.41;93.96;101204.82;1683982;83;21089;-86
2022/10/10 07:22:47;;;;;;;3.73;0.73;;;;;;;9.53;93.29;101193.38;1713675;82;21085;-90
2022/10/10 07:25:17;;;;;;;1.60;0.77;;;;;;;9.64;93.02;101197.59;1676151;82;88029;-72
2022/10/10 07:27:44;;;;;;;2.17;1.10;;;;;;;9.80;92.79;101205.64;1610398;86;21137;-72
2022/10/10 07:30:12;;;;;;;1.37;0.80;;;;;;;9.93;91.77;101201.19;1612123;86;21277;-72
2022/10/10 07:32:39;;;;;;;2.50;2.10;;;;;;;10.02;91.10;101200.69;1615355;85;22313;-71
2022/10/10 07:35:06;;;;;;;1.40;1.30;;;;;;;10.14;90.79;101192.73;1644533;84;21654;-69
2022/10/10 07:37:33;;;;;;;2.73;0.90;;;;;;;10.24;89.40;101196.05;1612882;87;20979;-72
2022/10/10 07:40:00;;;;;;;3.80;1.40;;;;;;;10.31;88.96;101182.45;1633790;86;21479;-72
2022/10/10 07:42:37;;;;;;;4.27;2.70;;;;;;;10.41;88.51;101190.78;1576321;88;21607;-74
2022/10/10 07:45:05;;;;;;;6.65;3.80;;;;;;;10.54;87.78;101183.62;1604860;85;21043;-71
2022/10/10 07:47:33;;;;;;;6.23;5.63;;;;;;;10.61;87.18;101184.11;1648791;85;21011;-71
2022/10/10 07:50:00;;;;;;;5.17;4.67;;;;;;;10.67;87.04;101190.09;1625741;85;21041;-70
2022/10/10 07:52:27;;;;;;;6.40;5.37;;;;;;;10.74;87.06;101182.27;1618814;85;20970;-71
2022/10/10 07:54:54;;;;;;;6.03;3.87;;;;;;;10.45;86.79;101130.33;1652016;84;21097;-70
2022/10/10 07:57:21;;;;;;;4.53;4.13;;;;;;;10.86;86.01;101184.91;1658909;84;21063;-69
2022/10/10 07:59:48;;;;;;;3.65;1.35;;;;;;;10.91;85.69;101191.91;1670243;84;21012;-72
2022/10/10 08:02:15;;;;;;;2.17;0.67;;;;;;;10.93;85.26;101191.74;1622115;84;21419;-71
2022/10/10 08:04:42;;;;;;;2.33;1.15;;;;;;;10.99;85.00;101191.05;1615866;87;21121;-74
2022/10/10 08:07:10;;;;;;;1.77;0.65;;;;;;;11.00;83.97;101186.54;1631163;86;22174;-76
2022/10/10 08:09:39;;;;;;;0.72;0.20;;;;;;;11.04;83.92;101196.72;1644695;86;20989;-74
2022/10/10 08:12:07;;;;;;;5.12;0.60;;;;;;;11.09;83.79;101184.19;1646275;85;20938;-73
2022/10/10 08:14:34;;;;;;;1.87;0.93;;;;;;;11.13;83.60;101180.68;1626676;86;20987;-75
2022/10/10 08:17:02;;;;;;;1.15;0.30;;;;;;;11.16;83.19;101196.36;1593713;86;20974;-74
2022/10/10 08:19:29;;;;;;;2.50;0.47;;;;;;;11.19;82.64;101190.18;1595070;88;21087;-74
2022/10/10 08:21:57;;;;;;;0.80;0.20;;;;;;;11.20;82.25;101199.01;1589359;87;21030;-72
2022/10/10 08:24:23;;;;;;;4.47;0.37;;;;;;;11.23;82.78;101200.84;1577641;84;21105;-71
2022/10/10 08:26:50;;;;;;;3.43;0.67;;;;;;;11.29;82.03;101196.65;1630552;86;21084;-71
2022/10/10 08:29:17;;;;;;;6.12;0.30;;;;;;;11.29;82.18;101189.98;1688904;82;21180;-71
2022/10/10 08:31:45;;;;;;;0.60;0.42;;;;;;;11.35;82.16;101185.78;1627293;87;21158;-70
2022/10/10 08:34:14;;;;;;;3.50;0.50;;;;;;;11.40;82.18;101193.61;1625271;86;21845;-71
2022/10/10 08:36:43;;;;;;;0.40;0.30;;;;;;;11.39;80.89;101186.59;1609615;87;21082;-71
2022/10/10 08:39:11;;;;;;;2.05;0.23;;;;;;;11.32;80.48;101194.98;1604627;87;21095;-72
2022/10/10 08:41:58;;;;;;;2.65;1.07;;;;;;;11.28;81.12;101194.97;1572204;86;21060;-70
2022/10/10 08:44:48;;;;;;;4.60;4.30;;;;;;;11.29;81.20;101180.63;1624420;86;21583;-72
2022/10/10 08:47:24;;;;;;;3.30;3.00;;;;;;;11.34;82.21;101188.97;1620400;87;21031;-69
2022/10/10 08:50:05;;;;;;;5.22;2.85;;;;;;;11.43;81.63;101188.41;1629451;86;21077;-71
2022/10/10 08:52:49;;;;;;;1.37;0.80;;;;;;;11.52;81.16;101186.04;1610087;87;21052;-71
2022/10/10 08:55:29;;;;;;;1.95;0.30;;;;;;;11.57;79.87;101194.88;1626701;88;21200;-72
2022/10/10 08:58:09;;;;;;;4.17;0.35;;;;;;;11.64;79.48;101195.34;1604624;88;21050;-69
2022/10/10 09:00:50;;;;;;;0.93;0.60;;;;;;;11.72;78.85;101186.97;1595330;88;21080;-71
2022/10/10 09:03:44;;;;;;;2.10;0.40;;;;;;;11.70;77.63;101187.14;1631819;86;21175;-71
2022/10/10 09:06:50;;;;;;;1.92;0.60;;;;;;;11.68;78.13;101195.83;1649500;85;21121;-72
2022/10/10 09:09:42;;;;;;;2.72;0.50;;;;;;;11.71;78.19;101205.32;1628918;85;21192;-71
2022/10/10 09:12:35;;;;;;;2.55;0.57;;;;;;;11.78;78.40;101192.94;1693310;83;21989;-72
2022/10/10 09:15:26;;;;;;;3.52;0.20;;;;;;;11.86;77.01;101201.72;1701787;83;21117;-77
2022/10/10 09:18:25;;;;;;;3.37;0.40;;;;;;;11.93;76.87;101199.22;1631800;85;21204;-74
2022/10/10 09:21:15;;;;;;;1.15;0.30;;;;;;;12.02;75.86;101208.03;1708183;83;21053;-71
2022/10/10 09:24:01;;;;;;;2.02;0.88;;;;;;;12.03;75.59;101205.16;1710138;82;21759;-70
2022/10/10 09:26:34;;;;;;;1.85;1.60;;;;;;;12.10;75.97;101190.59;1690697;83;21077;-70
2022/10/10 09:29:16;;;;;;;2.60;2.40;;;;;;;12.19;75.33;101188.20;1701996;82;21068;-71
2022/10/10 09:31:49;;;;;;;2.12;1.87;;;;;;;12.29;74.64;101192.48;1660414;83;21041;-71
2022/10/10 09:34:23;;;;;;;1.47;1.32;;;;;;;12.37;74.37;101176.36;1663959;85;21569;-72
2022/10/10 09:36:54;;;;;;;1.65;1.00;;;;;;;12.02;72.68;101128.70;1684445;83;21101;-71
2022/10/10 09:39:42;;;;;;;1.87;0.57;;;;;;;12.37;72.51;101189.73;1682525;83;21058;-72
2022/10/10 09:42:20;;;;;;;1.05;0.30;;;;;;;12.39;72.11;101187.70;1656075;84;20995;-72
2022/10/10 09:44:48;;;;;;;2.40;1.82;;;;;;;12.34;70.63;101189.59;1676310;83;21101;-72
2022/10/10 09:47:18;;;;;;;5.10;4.70;;;;;;;12.31;71.51;101190.45;1659902;83;21183;-71
2022/10/10 09:49:46;;;;;;;6.45;5.92;;;;;;;12.35;72.31;101175.72;1681957;82;21023;-72
2022/10/10 09:52:30;;;;;;;10.03;7.60;;;;;;;12.41;71.64;101173.17;1670942;82;21129;-71
2022/10/10 09:55:05;;;;;;;7.65;6.72;;;;;;;12.51;71.85;101168.05;1689718;83;21082;-70
2022/10/10 09:57:40;;;;;;;3.87;2.70;;;;;;;12.59;71.51;101179.52;1709448;83;21120;-72
2022/10/10 10:00:22;;;;;;;2.85;1.15;;;;;;;12.70;70.10;101153.36;1668673;83;21117;-71
2022/10/10 10:03:11;;;;;;;1.12;0.30;;;;;;;12.75;68.75;101168.33;1706295;82;21068;-71
2022/10/10 10:05:43;;;;;;;0.75;0.10;;;;;;;12.77;67.81;101164.48;1707979;81;21510;-72
2022/10/10 10:08:30;;;;;;;0.37;0.10;;;;;;;12.74;66.04;101154.13;1650123;82;21137;-71
2022/10/10 10:10:59;;;;;;;0.70;0.10;;;;;;;12.77;65.26;101160.47;1669845;83;21045;-73
2022/10/10 10:13:35;;;;;;;1.10;0.10;;;;;;;12.79;62.66;101169.63;1688364;83;21073;-71
2022/10/10 10:16:13;;;;;;;1.35;0.00;;;;;;;12.76;59.73;101156.63;1693748;83;21632;-71
2022/10/10 10:18:45;;;;;;;0.88;0.10;;;;;;;12.79;61.64;101158.44;1669329;83;21091;-70
2022/10/10 10:21:23;;;;;;;0.20;0.10;;;;;;;12.84;61.00;101159.22;1701688;83;21568;-72
2022/10/10 10:24:01;;;;;;;0.65;0.10;;;;;;;12.84;60.31;101152.53;1693066;83;21065;-69
2022/10/10 10:26:45;;;;;;;0.68;0.10;;;;;;;12.92;59.32;101163.64;1669515;83;21027;-68
2022/10/10 10:29:33;;;;;;;0.90;0.10;;;;;;;12.90;59.22;101155.80;1706851;82;21127;-71
2022/10/10 10:32:38;;;;;;;2.15;0.00;;;;;;;12.91;57.99;101163.34;1665752;84;21085;-70
2022/10/10 10:35:28;;;;;;;3.70;0.10;;;;;;;12.92;57.83;101164.98;1632344;86;21105;-72
2022/10/10 10:38:25;;;;;;;0.20;0.10;;;;;;;12.87;56.92;101156.19;1679646;83;21418;-72
2022/10/10 10:41:14;;;;;;;0.20;0.10;;;;;;;12.82;57.46;101169.27;1691290;83;21029;-72
2022/10/10 10:44:16;;;;;;;1.00;0.10;;;;;;;12.78;56.86;101176.00;1692692;83;21033;-71
2022/10/10 10:47:22;;;;;;;0.90;0.40;;;;;;;12.76;56.73;101170.01;1687421;83;21087;-68
2022/10/10 10:50:44;;;;;;;2.00;0.20;;;;;;;12.70;55.45;101155.52;1715511;82;21048;-70
2022/10/10 10:53:41;;;;;;;2.17;0.57;;;;;;;12.69;55.83;101164.54;1697500;83;21123;-69
2022/10/10 10:56:37;;;;;;;0.50;0.10;;;;;;;12.67;56.05;101155.87;1625242;83;21220;-73
2022/10/10 10:59:30;;;;;;;0.93;0.10;;;;;;;12.70;56.10;101164.05;1698369;81;21561;-72
2022/10/10 11:02:30;;;;;;;1.15;0.10;;;;;;;12.74;55.74;101161.34;1699031;83;21072;-71
2022/10/10 11:05:45;;;;;;;0.98;0.10;;;;;;;12.76;55.29;101160.64;1718734;83;21159;-70
2022/10/10 11:08:34;;;;;;;2.70;0.10;;;;;;;12.76;55.25;101162.80;1706888;81;21497;-71
2022/10/10 11:11:30;;;;;;;0.20;0.00;;;;;;;12.76;54.65;101146.75;1700326;83;21593;-70
2022/10/10 11:14:19;;;;;;;0.65;0.30;;;;;;;12.78;55.35;101166.13;1683101;83;21063;-73
2022/10/10 11:16:58;;;;;;;1.05;0.10;;;;;;;12.81;54.63;101161.76;1679080;83;21054;-72
2022/10/10 11:19:35;;;;;;;1.82;0.90;;;;;;;12.86;54.47;101166.55;1705621;83;21560;-71
2022/10/10 11:22:14;;;;;;;0.68;0.20;;;;;;;12.86;54.76;101138.45;1726011;83;21042;-71
2022/10/10 11:24:50;;;;;;;0.72;0.10;;;;;;;12.92;54.84;101157.81;1677975;83;21217;-71
2022/10/10 11:27:26;;;;;;;1.13;0.10;;;;;;;12.97;54.78;101154.05;1706692;83;20990;-70
2022/10/10 11:30:00;;;;;;;0.72;0.30;;;;;;;13.02;54.54;101156.20;1698653;83;21021;-69
2022/10/10 11:32:55;;;;;;;0.95;0.10;;;;;;;13.01;54.06;101154.00;1679640;83;21103;-71
2022/10/10 11:35:36;;;;;;;0.62;0.10;;;;;;;13.05;54.33;101160.67;1708641;83;21088;-71
2022/10/10 11:38:21;;;;;;;2.55;0.10;;;;;;;13.09;53.82;101154.93;1698151;83;20993;-72
2022/10/10 11:40:56;;;;;;;0.55;0.25;;;;;;;13.13;53.63;101147.70;1722899;83;21802;-72
2022/10/10 11:44:03;;;;;;;1.72;0.30;;;;;;;13.12;52.23;101140.67;1706805;83;21474;-71
2022/10/10 11:46:58;;;;;;;3.30;0.17;;;;;;;13.11;52.34;101150.22;1696877;83;21033;-72
2022/10/10 11:49:50;;;;;;;1.02;0.10;;;;;;;13.12;52.08;101151.90;1724488;83;21025;-72
2022/10/10 11:52:31;;;;;;;0.40;0.10;;;;;;;13.04;51.18;101160.85;1728653;81;21532;-72
2022/10/10 11:55:20;;;;;;;1.37;0.10;;;;;;;12.82;51.29;101107.73;1727391;81;21548;-72
2022/10/10 11:58:08;;;;;;;0.80;0.45;;;;;;;13.05;50.21;101152.64;1709552;83;21044;-71
2022/10/10 12:00:47;;;;;;;0.72;0.23;;;;;;;13.10;50.19;101155.27;1727067;81;21474;-76
2022/10/10 12:03:15;;;;;;;0.35;0.10;;;;;;;13.11;50.97;101147.06;1730473;83;20997;-73
2022/10/10 12:06:07;;;;;;;2.80;0.20;;;;;;;13.14;50.83;101149.34;1707085;83;21211;-71
2022/10/10 12:08:43;;;;;;;3.10;0.65;;;;;;;13.16;50.81;101158.53;1724615;81;20962;-72
2022/10/10 12:11:19;;;;;;;1.50;0.10;;;;;;;13.15;50.77;101151.54;1728199;82;21170;-71
2022/10/10 12:13:54;;;;;;;0.80;0.10;;;;;;;13.16;51.54;101149.98;1674934;83;21589;-73
2022/10/10 12:16:25;;;;;;;2.22;0.47;;;;;;;13.14;51.28;101161.39;1696341;83;21064;-70